Time;durP1;ratioP1;P1;durP2;ratioP2;P2;SDS_P1;SDS_P2;PMS_P1;PMS_P2;Temp;Humidity;BMP_temperature;BMP_pressure;BME280_temperature;BME280_humidity;BME280_pressure;Samples;Min_cycle;Max_cycle;Signal;HPM_P1;HPM_P2
2022/01/03 04:03:06;;;;;;;17.17;3.50;;;10.30;82.00;;;;;;5133963;27;20108;-48
2022/01/03 04:05:31;;;;;;;33.05;5.63;;;10.30;82.10;;;;;;5132047;28;20497;-48
2022/01/03 04:07:57;;;;;;;16.77;3.35;;;10.30;82.10;;;;;;5115687;28;20020;-48
2022/01/03 04:10:22;;;;;;;16.45;3.45;;;10.30;81.90;;;;;;5115006;28;20118;-48
2022/01/03 04:12:49;;;;;;;26.42;4.28;;;10.30;82.00;;;;;;5133028;28;20055;-49
2022/01/03 04:15:15;;;;;;;25.10;4.15;;;10.30;81.80;;;;;;5132821;28;20124;-49
2022/01/03 04:17:41;;;;;;;19.73;3.45;;;10.30;81.80;;;;;;5133364;28;20080;-49
2022/01/03 04:20:08;;;;;;;11.55;3.03;;;10.30;81.70;;;;;;5131956;27;20509;-51
2022/01/03 04:22:34;;;;;;;19.00;3.22;;;10.30;81.60;;;;;;5132382;27;20020;-50
2022/01/03 04:24:59;;;;;;;23.27;2.95;;;10.30;81.70;;;;;;5132307;27;20039;-50
2022/01/03 04:27:25;;;;;;;24.60;6.13;;;10.30;81.30;;;;;;5132936;27;20100;-49
2022/01/03 04:29:51;;;;;;;22.70;3.88;;;10.30;81.40;;;;;;5132169;27;20027;-51
2022/01/03 04:32:17;;;;;;;18.95;2.88;;;10.30;81.40;;;;;;5133543;28;20535;-49
2022/01/03 04:34:43;;;;;;;19.30;3.38;;;10.30;81.30;;;;;;5131540;27;20107;-48
2022/01/03 04:37:09;;;;;;;17.10;3.35;;;10.30;81.40;;;;;;5131923;27;20076;-51
2022/01/03 04:39:35;;;;;;;12.70;3.67;;;10.30;81.60;;;;;;5129974;28;20040;-53
2022/01/03 04:42:00;;;;;;;18.08;3.03;;;10.30;81.90;;;;;;5132534;27;20440;-48
2022/01/03 04:44:26;;;;;;;11.52;2.33;;;10.20;81.90;;;;;;5131622;27;20110;-49
2022/01/03 04:46:53;;;;;;;12.82;3.22;;;10.20;82.00;;;;;;5132620;27;20073;-49
2022/01/03 04:49:18;;;;;;;18.38;4.40;;;10.20;82.10;;;;;;5131984;27;20024;-51
2022/01/03 04:51:44;;;;;;;14.70;2.47;;;10.20;82.00;;;;;;5132412;27;20038;-48
2022/01/03 04:54:10;;;;;;;9.38;3.17;;;10.30;82.00;;;;;;5130601;28;20024;-51
2022/01/03 04:56:35;;;;;;;20.63;3.53;;;10.20;82.20;;;;;;5132662;27;20027;-53
2022/01/03 04:59:03;;;;;;;19.48;3.17;;;10.10;82.40;;;;;;5131487;27;20047;-49
2022/01/03 05:01:28;;;;;;;22.40;3.28;;;10.10;82.30;;;;;;5131654;27;20039;-50
2022/01/03 05:03:54;;;;;;;22.40;3.90;;;10.10;82.50;;;;;;5130835;28;20383;-49
2022/01/03 05:06:20;;;;;;;19.25;3.50;;;10.10;82.50;;;;;;5132152;27;20034;-49
2022/01/03 05:08:46;;;;;;;12.50;3.10;;;10.10;82.40;;;;;;5132156;27;20525;-48
2022/01/03 05:11:12;;;;;;;27.33;4.88;;;10.10;82.40;;;;;;5132137;27;20031;-50
2022/01/03 05:13:38;;;;;;;12.88;3.35;;;10.10;82.60;;;;;;5122685;27;20103;-54
2022/01/03 05:16:04;;;;;;;21.15;3.20;;;10.10;82.40;;;;;;5119012;28;20097;-50
2022/01/03 05:18:30;;;;;;;12.68;2.97;;;10.10;82.50;;;;;;5116939;28;20019;-49
2022/01/03 05:20:56;;;;;;;22.52;5.70;;;10.00;82.70;;;;;;5117713;28;20351;-52
2022/01/03 05:23:22;;;;;;;16.73;2.83;;;10.00;82.70;;;;;;5116016;28;20027;-51
2022/01/03 05:25:48;;;;;;;11.63;2.60;;;10.00;82.70;;;;;;5117829;28;20019;-51
2022/01/03 05:28:14;;;;;;;20.13;2.75;;;10.00;82.90;;;;;;5116813;28;20052;-48
2022/01/03 05:30:40;;;;;;;12.93;3.50;;;10.00;82.50;;;;;;5118178;28;20151;-47
2022/01/03 05:33:06;;;;;;;17.60;2.50;;;10.00;82.60;;;;;;5117929;28;20030;-49
2022/01/03 05:35:31;;;;;;;20.48;4.00;;;10.00;82.80;;;;;;5117075;28;20028;-51
2022/01/03 05:37:57;;;;;;;14.10;2.83;;;10.00;82.80;;;;;;5116665;28;20047;-38
2022/01/03 05:40:26;;;;;;;18.20;4.18;;;10.00;83.00;;;;;;5116674;28;20024;-41
2022/01/03 05:42:52;;;;;;;15.52;3.63;;;9.90;82.90;;;;;;5116701;28;20027;-38
2022/01/03 05:45:18;;;;;;;11.23;2.30;;;9.90;83.10;;;;;;5117471;28;20028;-38
2022/01/03 05:47:46;;;;;;;19.08;4.10;;;9.90;83.20;;;;;;5117271;28;20055;-38
2022/01/03 05:50:13;;;;;;;16.70;2.67;;;9.90;83.30;;;;;;5116716;28;20024;-38
2022/01/03 05:52:39;;;;;;;17.40;3.20;;;9.80;83.20;;;;;;5116024;28;20028;-38
2022/01/03 05:55:05;;;;;;;26.63;4.47;;;9.90;83.10;;;;;;5117004;28;20379;-38
2022/01/03 05:57:32;;;;;;;12.10;3.15;;;9.90;83.10;;;;;;5116558;28;20063;-37
2022/01/03 05:59:59;;;;;;;27.08;5.20;;;9.90;83.00;;;;;;5116537;28;20384;-37
2022/01/03 06:02:26;;;;;;;16.70;4.25;;;10.00;82.80;;;;;;5114535;28;20047;-38
2022/01/03 06:07:19;;;;;;;18.67;3.30;;;9.90;83.10;;;;;;5116173;28;20494;-38
2022/01/03 06:09:45;;;;;;;9.68;3.00;;;9.90;83.00;;;;;;5116023;28;20065;-37
2022/01/03 06:12:11;;;;;;;10.85;2.90;;;9.90;83.10;;;;;;5116906;28;20467;-37
2022/01/03 06:14:37;;;;;;;14.18;3.08;;;10.00;82.80;;;;;;5115997;28;20106;-37
2022/01/03 06:17:04;;;;;;;14.27;3.67;;;10.00;83.00;;;;;;5116458;28;20055;-38
2022/01/03 06:19:32;;;;;;;24.35;4.15;;;9.80;83.10;;;;;;5115543;28;20042;-37
2022/01/03 06:21:58;;;;;;;13.32;3.53;;;9.90;83.10;;;;;;5115716;28;20039;-38
2022/01/03 06:24:24;;;;;;;15.77;2.72;;;9.90;83.20;;;;;;5115280;28;20023;-38
2022/01/03 06:26:49;;;;;;;17.42;4.32;;;9.90;83.10;;;;;;5116230;28;20028;-38
2022/01/03 06:29:16;;;;;;;16.90;3.28;;;9.90;83.00;;;;;;5114835;28;20028;-37
2022/01/03 06:31:42;;;;;;;13.30;4.05;;;9.90;83.10;;;;;;5115767;28;20031;-37
2022/01/03 06:34:08;;;;;;;21.13;5.03;;;10.00;83.10;;;;;;5115423;28;20032;-38
2022/01/03 06:36:34;;;;;;;19.40;3.42;;;10.00;82.90;;;;;;5115871;28;20026;-38
2022/01/03 06:39:00;;;;;;;30.75;4.50;;;10.00;83.10;;;;;;5116837;28;20042;-38
2022/01/03 06:41:26;;;;;;;18.38;4.85;;;10.00;83.00;;;;;;5116364;28;20023;-38
2022/01/03 06:43:52;;;;;;;20.38;3.65;;;10.00;83.10;;;;;;5116855;28;20384;-38
2022/01/03 06:46:18;;;;;;;17.45;4.20;;;10.00;82.90;;;;;;5116140;28;20028;-38
2022/01/03 06:48:46;;;;;;;19.77;3.60;;;10.00;83.00;;;;;;5116376;27;20094;-38
2022/01/03 06:51:12;;;;;;;14.45;2.88;;;9.90;83.20;;;;;;5115153;28;20027;-38
2022/01/03 06:53:38;;;;;;;11.82;3.17;;;10.00;83.20;;;;;;5113925;28;20031;-38
2022/01/03 06:56:04;;;;;;;14.70;3.33;;;10.00;83.10;;;;;;5113909;28;20036;-38
2022/01/03 06:58:31;;;;;;;14.50;2.92;;;10.00;83.00;;;;;;5115108;28;20054;-38
2022/01/03 07:00:57;;;;;;;11.85;3.30;;;10.10;82.80;;;;;;5114895;28;20031;-38
2022/01/03 07:03:23;;;;;;;18.25;4.15;;;10.00;83.00;;;;;;5114782;28;20031;-38
2022/01/03 07:05:48;;;;;;;27.58;5.47;;;10.00;82.90;;;;;;5114925;28;20144;-38
2022/01/03 07:08:14;;;;;;;19.42;3.95;;;10.00;83.10;;;;;;5114917;28;20019;-39
2022/01/03 07:10:40;;;;;;;23.65;7.20;;;10.00;83.00;;;;;;5115672;28;20073;-38
2022/01/03 07:13:05;;;;;;;16.15;3.40;;;10.00;83.30;;;;;;5114943;28;20102;-38
2022/01/03 07:20:59;;;;;;;16.10;4.35;;;9.90;83.30;;;;;;5115588;28;20034;-39
2022/01/03 07:23:26;;;;;;;22.02;3.92;;;10.00;83.40;;;;;;5112891;28;20110;-40
2022/01/03 07:25:51;;;;;;;28.85;4.53;;;10.00;83.20;;;;;;5113812;28;20031;-39
2022/01/03 07:28:20;;;;;;;19.35;3.63;;;10.10;83.10;;;;;;5113303;28;20095;-41
2022/01/03 07:30:46;;;;;;;16.92;2.58;;;10.10;82.80;;;;;;5114172;28;20119;-39
2022/01/03 07:33:12;;;;;;;13.73;2.92;;;10.10;82.90;;;;;;5114476;28;20047;-40
2022/01/03 07:35:38;;;;;;;17.13;4.10;;;10.10;82.80;;;;;;5113645;28;20519;-39
2022/01/03 07:38:04;;;;;;;12.98;2.83;;;10.10;82.60;;;;;;5114207;28;20047;-39
2022/01/03 07:40:30;;;;;;;17.83;2.78;;;10.10;82.70;;;;;;5114535;28;20023;-38
2022/01/03 07:42:57;;;;;;;18.60;4.50;;;10.20;82.80;;;;;;5113524;27;20076;-38
2022/01/03 07:45:22;;;;;;;16.13;4.55;;;10.10;82.80;;;;;;5114867;28;20436;-39
2022/01/03 07:47:48;;;;;;;29.38;4.15;;;10.10;82.80;;;;;;5113304;28;20052;-39
2022/01/03 07:50:14;;;;;;;31.55;3.80;;;10.20;82.90;;;;;;5113766;28;20103;-39
2022/01/03 07:52:40;;;;;;;14.77;3.53;;;10.20;82.70;;;;;;5114693;28;20031;-39
2022/01/03 07:55:08;;;;;;;23.83;4.63;;;10.20;82.60;;;;;;5113668;28;20127;-38
2022/01/03 07:57:34;;;;;;;12.65;2.97;;;10.20;82.40;;;;;;5113417;28;20032;-38
2022/01/03 08:00:00;;;;;;;23.90;4.95;;;10.20;82.50;;;;;;5113472;28;20038;-39
2022/01/03 14:03:06;;;;;;;14.70;2.40;;;10.20;84.00;;;;;;5111094;27;20158;-38
2022/01/03 14:05:32;;;;;;;13.10;3.05;;;10.20;84.50;;;;;;5111308;28;20524;-41
2022/01/03 14:08:00;;;;;;;7.57;2.15;;;10.30;84.00;;;;;;5110340;28;20095;-37
2022/01/03 14:10:44;;;;;;;16.05;3.50;;;10.30;84.10;;;;;;5110589;28;20500;-39
2022/01/03 14:13:20;;;;;;;11.20;3.03;;;10.30;84.10;;;;;;5111780;28;20050;-38
2022/01/03 14:15:59;;;;;;;16.90;3.22;;;10.30;84.30;;;;;;5111335;28;20027;-39
2022/01/03 14:18:41;;;;;;;7.35;2.47;;;10.20;84.10;;;;;;5110460;28;20019;-38
2022/01/03 14:21:25;;;;;;;20.33;3.35;;;10.30;84.60;;;;;;5110757;28;20036;-39
2022/01/03 14:23:53;;;;;;;11.93;2.78;;;10.20;84.70;;;;;;5110915;28;20069;-39
2022/01/03 14:26:30;;;;;;;5.85;1.50;;;10.20;85.10;;;;;;5110725;28;20020;-38
2022/01/03 14:29:07;;;;;;;2.85;1.58;;;10.10;85.60;;;;;;5110622;28;20024;-43
2022/01/03 14:31:42;;;;;;;15.57;2.70;;;10.10;85.90;;;;;;5110595;28;20072;-38
2022/01/03 14:34:08;;;;;;;5.68;3.17;;;9.90;86.90;;;;;;5110898;28;20391;-40
2022/01/03 14:36:41;;;;;;;19.80;3.05;;;9.80;87.70;;;;;;5110456;28;20100;-39
2022/01/03 14:39:07;;;;;;;5.53;2.30;;;9.80;88.20;;;;;;5110320;28;20038;-38
2022/01/03 14:41:33;;;;;;;12.23;3.17;;;9.70;88.20;;;;;;5111366;28;20071;-38
2022/01/03 14:44:02;;;;;;;7.93;2.75;;;9.70;88.30;;;;;;5110998;28;20024;-39
2022/01/03 14:46:33;;;;;;;16.85;4.90;;;9.70;88.30;;;;;;5109671;28;20494;-39
2022/01/03 14:48:59;;;;;;;15.15;2.90;;;9.70;88.20;;;;;;5111423;28;20027;-38
2022/01/03 14:51:40;;;;;;;9.48;3.03;;;9.70;88.30;;;;;;5109002;28;20028;-38
2022/01/03 14:54:15;;;;;;;12.25;2.10;;;9.70;87.80;;;;;;5110472;28;20169;-40
2022/01/03 14:56:41;;;;;;;7.38;3.35;;;9.70;88.10;;;;;;5110234;28;20030;-37
2022/01/03 14:59:22;;;;;;;14.25;2.78;;;9.70;87.80;;;;;;5111093;28;20027;-39
2022/01/03 15:01:53;;;;;;;8.18;2.40;;;9.70;87.30;;;;;;5109560;28;20089;-38
2022/01/03 15:04:22;;;;;;;12.07;2.97;;;9.70;87.50;;;;;;5109585;28;20016;-41
2022/01/03 15:06:48;;;;;;;15.40;3.15;;;9.80;87.20;;;;;;5110055;28;20024;-38
2022/01/03 15:09:14;;;;;;;12.35;3.97;;;9.80;87.20;;;;;;5108665;28;20024;-38
2022/01/03 15:11:40;;;;;;;19.75;4.80;;;9.70;87.30;;;;;;5109540;28;20027;-38
2022/01/03 15:14:06;;;;;;;11.07;2.72;;;9.70;87.70;;;;;;5097953;28;20038;-38
2022/01/03 15:16:32;;;;;;;8.15;2.40;;;9.70;87.20;;;;;;5096091;28;20107;-38
2022/01/03 15:18:58;;;;;;;9.35;2.85;;;9.70;87.10;;;;;;5095587;28;20020;-39
2022/01/03 15:21:23;;;;;;;14.88;2.80;;;9.70;86.80;;;;;;5096037;28;20031;-38
2022/01/03 15:23:49;;;;;;;10.10;2.75;;;9.80;85.90;;;;;;5095929;28;20069;-38
2022/01/03 15:26:15;;;;;;;6.68;1.42;;;9.80;85.30;;;;;;5096179;28;20020;-39
2022/01/03 15:28:42;;;;;;;5.60;1.65;;;9.80;85.20;;;;;;5096668;28;20090;-40
2022/01/03 15:31:08;;;;;;;4.72;2.13;;;9.70;84.90;;;;;;5096996;28;20032;-38
2022/01/03 15:33:34;;;;;;;5.70;1.70;;;9.70;84.00;;;;;;5096731;28;20032;-38
2022/01/03 15:36:01;;;;;;;4.63;1.40;;;9.60;84.30;;;;;;5095140;28;20024;-38
2022/01/03 15:38:31;;;;;;;3.67;1.17;;;9.60;82.90;;;;;;5097598;28;20118;-38
2022/01/03 15:40:58;;;;;;;4.10;1.48;;;9.60;82.10;;;;;;5095254;28;20028;-38
2022/01/03 15:43:26;;;;;;;4.50;1.35;;;9.50;82.20;;;;;;5095440;28;20027;-38
2022/01/03 15:45:53;;;;;;;2.90;1.50;;;9.50;82.60;;;;;;5095884;28;20024;-37
2022/01/03 15:48:20;;;;;;;5.70;1.23;;;9.40;82.60;;;;;;5095799;28;20051;-38
2022/01/03 15:50:46;;;;;;;4.53;1.63;;;9.40;82.40;;;;;;5095286;28;20020;-38
2022/01/03 15:53:15;;;;;;;1.15;0.98;;;9.40;82.00;;;;;;5095423;28;20502;-37
2022/01/03 15:55:41;;;;;;;2.83;1.20;;;9.40;82.00;;;;;;5096005;28;20403;-39
2022/01/03 15:58:07;;;;;;;5.82;2.08;;;9.40;82.00;;;;;;5095343;28;20030;-39
2022/01/03 16:00:35;;;;;;;3.90;1.42;;;9.40;82.00;;;;;;5095262;28;20090;-40
2022/01/03 16:03:02;;;;;;;3.65;1.13;;;9.40;82.00;;;;;;5094442;28;20048;-40
2022/01/03 16:05:27;;;;;;;4.78;1.55;;;9.50;82.20;;;;;;5095393;28;20521;-44
2022/01/03 16:07:53;;;;;;;4.80;2.10;;;9.40;82.60;;;;;;5097129;28;20031;-40
2022/01/03 16:10:19;;;;;;;2.95;1.73;;;9.50;82.50;;;;;;5095152;28;20483;-37
2022/01/03 16:12:45;;;;;;;5.80;1.70;;;9.50;82.50;;;;;;5094609;28;20537;-43
2022/01/03 16:15:11;;;;;;;5.55;1.95;;;9.40;82.80;;;;;;5094856;28;20024;-42
2022/01/03 16:17:37;;;;;;;5.22;2.15;;;9.40;83.00;;;;;;5095059;28;20105;-38
2022/01/03 16:20:04;;;;;;;5.95;1.90;;;9.40;83.20;;;;;;5095597;28;20097;-38
2022/01/03 16:22:30;;;;;;;6.80;2.55;;;9.40;83.40;;;;;;5095092;28;20065;-39
2022/01/03 16:24:56;;;;;;;6.68;2.30;;;9.30;84.00;;;;;;5093898;28;20024;-38
2022/01/03 16:27:22;;;;;;;5.72;1.90;;;9.30;84.10;;;;;;5094875;28;20163;-38
2022/01/03 16:29:47;;;;;;;6.38;2.08;;;9.30;84.30;;;;;;5094396;28;20031;-38
2022/01/03 16:32:13;;;;;;;4.38;1.67;;;9.30;84.80;;;;;;5094729;28;20028;-41
2022/01/03 16:34:39;;;;;;;5.90;2.33;;;9.30;84.50;;;;;;5095021;28;20424;-38
2022/01/03 16:37:06;;;;;;;10.13;2.38;;;9.30;84.60;;;;;;5093545;28;20024;-38
2022/01/03 16:39:32;;;;;;;12.68;2.85;;;9.30;84.80;;;;;;5093239;28;20097;-38
2022/01/03 16:41:58;;;;;;;10.00;2.40;;;9.30;84.90;;;;;;5094679;28;20032;-38
2022/01/03 16:44:24;;;;;;;5.50;2.33;;;9.30;85.20;;;;;;5095339;28;20076;-51
2022/01/03 16:46:51;;;;;;;4.20;1.90;;;9.30;85.40;;;;;;5094121;28;20025;-50
2022/01/03 16:49:17;;;;;;;8.13;2.60;;;9.30;85.60;;;;;;5093335;28;20027;-47
2022/01/03 16:51:43;;;;;;;4.47;1.83;;;9.30;85.80;;;;;;5094634;28;20475;-38
2022/01/03 16:54:09;;;;;;;5.50;2.83;;;9.30;86.00;;;;;;5094127;28;20028;-39
2022/01/03 16:56:34;;;;;;;6.80;2.15;;;9.30;86.10;;;;;;5094469;28;20073;-38
2022/01/03 16:59:00;;;;;;;4.22;1.92;;;9.20;86.30;;;;;;5095126;28;20119;-38
2022/01/03 17:01:26;;;;;;;10.57;2.75;;;9.20;86.50;;;;;;5094113;28;20044;-39
2022/01/03 17:03:52;;;;;;;3.55;1.60;;;9.20;86.70;;;;;;5094508;28;20466;-40
2022/01/03 17:06:19;;;;;;;6.30;3.15;;;9.20;87.00;;;;;;5094093;28;20020;-38
2022/01/03 17:08:47;;;;;;;12.00;2.90;;;9.20;87.00;;;;;;5097206;28;20016;-44
2022/01/03 17:11:14;;;;;;;4.57;3.00;;;9.20;86.90;;;;;;5094286;28;20044;-39
2022/01/03 17:13:44;;;;;;;17.58;3.00;;;9.30;86.90;;;;;;5093251;28;20028;-37
2022/01/03 17:16:11;;;;;;;7.07;3.13;;;9.20;87.00;;;;;;5093917;28;20024;-39
2022/01/03 17:18:37;;;;;;;8.85;3.42;;;9.30;87.10;;;;;;5093374;28;20407;-37
2022/01/03 17:21:05;;;;;;;7.45;2.60;;;9.20;87.20;;;;;;5093786;28;20028;-38
2022/01/03 17:23:31;;;;;;;5.35;2.35;;;9.30;87.20;;;;;;5094212;28;20016;-42
2022/01/03 17:25:56;;;;;;;9.98;3.63;;;9.20;87.30;;;;;;5093253;28;20454;-38
2022/01/03 17:28:24;;;;;;;12.07;4.82;;;9.20;87.30;;;;;;5095048;28;20047;-39
2022/01/03 17:30:51;;;;;;;5.78;2.63;;;9.20;87.40;;;;;;5093972;28;20038;-37
2022/01/03 17:33:17;;;;;;;5.95;3.30;;;9.30;87.40;;;;;;5094858;28;20027;-37
2022/01/03 17:35:44;;;;;;;8.82;2.50;;;9.30;87.20;;;;;;5093639;28;20457;-38
2022/01/03 17:38:10;;;;;;;10.10;4.85;;;9.20;87.30;;;;;;5094755;28;20067;-38
2022/01/03 17:40:35;;;;;;;12.05;3.40;;;9.30;87.40;;;;;;5093020;28;20024;-39
2022/01/03 17:43:02;;;;;;;9.00;3.03;;;9.20;87.40;;;;;;5094686;28;20388;-38
2022/01/03 17:45:29;;;;;;;9.90;3.50;;;9.20;87.80;;;;;;5094619;28;20475;-38
2022/01/03 17:47:55;;;;;;;5.68;2.45;;;9.30;87.70;;;;;;5094436;28;20020;-39
2022/01/03 17:50:22;;;;;;;5.38;2.92;;;9.20;87.80;;;;;;5094846;28;20387;-38
2022/01/03 17:52:48;;;;;;;4.10;2.72;;;9.30;87.90;;;;;;5092838;28;20067;-39
2022/01/03 17:55:14;;;;;;;4.63;2.55;;;9.10;88.60;;;;;;5093752;28;20035;-38
2022/01/03 17:57:39;;;;;;;9.75;4.05;;;9.10;88.70;;;;;;5093615;28;20028;-39
2022/01/03 18:00:08;;;;;;;7.82;2.75;;;9.10;88.50;;;;;;5092509;28;20157;-39
2022/01/03 18:02:34;;;;;;;7.43;2.30;;;9.20;88.40;;;;;;5093022;28;20056;-38
2022/01/03 18:05:00;;;;;;;6.47;2.95;;;9.20;88.00;;;;;;5075530;28;20024;-38
2022/01/03 18:07:26;;;;;;;8.77;3.95;;;9.30;88.00;;;;;;5093116;28;20145;-39
2022/01/03 18:09:52;;;;;;;5.28;2.78;;;9.30;87.70;;;;;;5093237;28;20091;-38
2022/01/03 18:12:18;;;;;;;5.68;2.92;;;9.30;87.80;;;;;;5091750;28;20422;-38
2022/01/03 18:14:44;;;;;;;5.95;2.75;;;9.30;88.00;;;;;;5092303;28;20020;-39
2022/01/03 18:17:11;;;;;;;7.10;2.30;;;9.30;87.70;;;;;;5093524;28;20025;-38
2022/01/03 18:19:37;;;;;;;6.45;2.85;;;9.30;87.70;;;;;;5093807;28;20444;-48
2022/01/03 18:22:04;;;;;;;6.80;3.53;;;9.30;87.70;;;;;;5093540;28;20031;-49
2022/01/03 18:24:30;;;;;;;5.80;2.97;;;9.30;87.80;;;;;;5093409;28;20031;-51
2022/01/03 18:26:56;;;;;;;7.55;3.83;;;9.30;87.70;;;;;;5092414;28;20028;-48
2022/01/03 18:29:22;;;;;;;8.35;4.72;;;9.30;87.80;;;;;;5093211;28;20065;-50
2022/01/03 18:31:48;;;;;;;7.18;4.72;;;9.20;87.60;;;;;;5093247;28;20028;-52
2022/01/03 18:34:14;;;;;;;8.68;4.22;;;9.20;87.80;;;;;;5093261;28;20440;-49
2022/01/03 18:36:40;;;;;;;8.32;5.72;;;9.30;88.10;;;;;;5093830;28;20052;-50
2022/01/03 18:39:06;;;;;;;6.78;4.32;;;9.30;88.20;;;;;;5093863;28;20068;-49
2022/01/03 18:41:35;;;;;;;9.73;7.25;;;9.30;88.00;;;;;;5094061;28;20024;-52
2022/01/03 18:44:01;;;;;;;8.70;5.40;;;9.20;88.00;;;;;;5093593;28;20464;-50
2022/01/03 18:46:27;;;;;;;8.38;4.57;;;9.20;88.20;;;;;;5093331;28;20024;-50
2022/01/03 18:48:53;;;;;;;8.55;4.95;;;9.20;88.30;;;;;;5095918;28;20046;-50
2022/01/03 18:51:18;;;;;;;8.57;5.22;;;9.20;88.00;;;;;;5097455;28;20107;-52
2022/01/03 18:53:44;;;;;;;9.32;5.32;;;9.20;88.20;;;;;;5097412;28;20051;-48
2022/01/03 18:56:11;;;;;;;7.88;6.18;;;9.10;88.20;;;;;;5096520;28;20020;-49
2022/01/03 18:58:36;;;;;;;10.77;5.63;;;9.10;88.30;;;;;;5097222;28;20028;-49
2022/01/03 19:01:03;;;;;;;11.88;5.90;;;9.10;88.60;;;;;;5096821;28;20036;-49
2022/01/03 19:03:29;;;;;;;8.93;5.53;;;9.10;88.50;;;;;;5095316;28;20021;-52
2022/01/03 19:05:55;;;;;;;11.00;5.45;;;9.10;88.50;;;;;;5095099;28;20024;-48
2022/01/03 19:08:21;;;;;;;9.75;5.65;;;9.10;88.50;;;;;;5096416;28;20528;-52
2022/01/03 19:10:47;;;;;;;8.07;5.50;;;9.10;88.40;;;;;;5096961;28;20028;-49
2022/01/03 19:13:13;;;;;;;9.40;5.18;;;9.10;88.60;;;;;;5096281;28;20024;-52
2022/01/03 19:15:44;;;;;;;9.57;6.18;;;9.00;88.80;;;;;;5097282;28;20017;-52
2022/01/03 19:18:11;;;;;;;16.02;5.85;;;9.10;88.70;;;;;;5096542;28;20051;-50
2022/01/03 19:20:37;;;;;;;12.55;5.65;;;9.00;88.60;;;;;;5097336;28;20102;-48
2022/01/03 19:23:05;;;;;;;8.85;5.53;;;9.10;88.80;;;;;;5096826;28;20032;-50
2022/01/03 19:25:31;;;;;;;14.75;6.95;;;9.10;88.50;;;;;;5095814;28;20016;-52
2022/01/03 19:27:57;;;;;;;8.65;6.03;;;9.10;88.70;;;;;;5095903;28;20035;-51
2022/01/03 19:30:23;;;;;;;7.97;5.55;;;9.10;88.80;;;;;;5096717;28;20024;-49
2022/01/03 19:38:02;;;;;;;12.45;6.30;;;9.10;89.20;;;;;;5096604;28;20510;-48
2022/01/03 19:40:30;;;;;;;8.18;6.25;;;9.10;89.10;;;;;;5096798;28;20024;-51
2022/01/03 19:42:57;;;;;;;13.80;6.95;;;9.10;89.00;;;;;;5095817;28;20035;-50
2022/01/03 19:45:23;;;;;;;29.38;6.75;;;9.10;89.20;;;;;;5097370;28;20047;-47
2022/01/03 19:47:50;;;;;;;14.02;7.25;;;9.10;89.20;;;;;;5096907;28;20025;-49
2022/01/03 19:50:16;;;;;;;10.45;5.78;;;9.10;89.50;;;;;;5095003;28;20030;-49
2022/01/03 19:52:42;;;;;;;14.15;5.97;;;9.10;89.40;;;;;;5095153;28;20039;-51
2022/01/03 19:55:08;;;;;;;13.20;7.35;;;9.10;89.50;;;;;;5095981;28;20065;-50
2022/01/03 19:57:35;;;;;;;16.98;8.23;;;9.10;89.40;;;;;;5096126;28;20111;-53
2022/01/03 20:00:01;;;;;;;13.27;6.82;;;9.10;89.50;;;;;;5096125;28;20028;-50
2022/01/03 20:02:27;;;;;;;14.70;8.55;;;9.10;89.30;;;;;;5095108;28;20127;-51
2022/01/03 20:04:54;;;;;;;12.75;7.78;;;9.10;89.50;;;;;;5095200;28;20063;-49
2022/01/03 20:07:22;;;;;;;12.73;7.85;;;9.20;89.70;;;;;;5095688;28;20046;-50
2022/01/03 20:09:54;;;;;;;14.25;9.05;;;9.20;89.30;;;;;;5095815;28;20104;-50
2022/01/03 20:12:20;;;;;;;15.68;8.38;;;9.30;89.30;;;;;;5095627;28;20028;-49
2022/01/03 20:14:47;;;;;;;15.98;10.73;;;9.20;89.10;;;;;;5096105;28;20034;-49
2022/01/03 20:17:13;;;;;;;17.05;10.27;;;9.20;89.20;;;;;;5096685;28;20024;-50
2022/01/03 20:19:40;;;;;;;10.25;7.10;;;9.20;89.20;;;;;;5095689;28;20023;-52
2022/01/03 20:22:06;;;;;;;15.93;8.02;;;9.20;89.20;;;;;;5095159;28;20459;-49
2022/01/03 20:24:32;;;;;;;14.80;7.80;;;9.30;88.90;;;;;;5096508;28;20072;-53
2022/01/03 20:26:58;;;;;;;11.85;7.10;;;9.30;88.70;;;;;;5095193;28;20165;-51
2022/01/03 20:29:24;;;;;;;14.85;8.32;;;9.20;89.10;;;;;;5095974;28;20031;-49
2022/01/03 20:31:51;;;;;;;11.93;6.10;;;9.20;89.20;;;;;;5095319;28;20024;-50
2022/01/03 20:34:17;;;;;;;14.13;8.35;;;9.20;89.20;;;;;;5095247;28;20085;-50
2022/01/03 20:36:43;;;;;;;15.15;9.15;;;9.20;89.20;;;;;;5095611;28;20448;-50
2022/01/03 20:39:12;;;;;;;15.10;8.70;;;9.20;89.40;;;;;;5094775;28;20115;-49
2022/01/03 20:41:41;;;;;;;13.18;8.43;;;9.20;89.30;;;;;;5094928;28;20329;-50
2022/01/03 20:44:08;;;;;;;14.02;8.05;;;9.20;89.30;;;;;;5095393;28;20020;-50
2022/01/03 20:46:34;;;;;;;13.15;7.78;;;9.20;89.40;;;;;;5095401;28;20032;-49
2022/01/03 20:49:00;;;;;;;13.50;7.45;;;9.20;89.50;;;;;;5093593;28;20021;-50
2022/01/03 20:51:26;;;;;;;19.98;8.32;;;9.30;89.40;;;;;;5094669;28;20055;-51
2022/01/03 20:53:52;;;;;;;25.05;9.02;;;9.30;89.20;;;;;;5094854;28;20356;-51
2022/01/03 20:56:18;;;;;;;13.70;7.28;;;9.30;89.30;;;;;;5095271;28;20043;-49
2022/01/03 20:58:45;;;;;;;12.65;6.25;;;9.30;89.20;;;;;;5095555;28;20027;-52
2022/01/03 21:01:11;;;;;;;18.90;8.98;;;9.30;89.50;;;;;;5094277;28;20097;-51
2022/01/03 21:03:37;;;;;;;15.43;6.95;;;9.30;89.30;;;;;;5095193;28;20072;-49
2022/01/03 21:06:03;;;;;;;15.82;6.35;;;9.30;89.20;;;;;;5095756;28;20095;-49
2022/01/03 21:08:29;;;;;;;10.68;6.20;;;9.30;89.40;;;;;;5095170;28;20510;-50
2022/01/03 21:10:54;;;;;;;11.60;5.95;;;9.30;89.40;;;;;;5094863;28;20016;-51
2022/01/03 21:13:20;;;;;;;20.20;7.43;;;9.30;89.30;;;;;;5095597;28;20380;-52
2022/01/03 21:15:46;;;;;;;10.98;6.35;;;9.30;89.20;;;;;;5095927;28;20016;-49
2022/01/03 21:18:11;;;;;;;10.30;6.43;;;9.30;89.20;;;;;;5095018;28;20032;-47
2022/01/03 21:20:37;;;;;;;11.75;5.72;;;9.40;89.30;;;;;;5094878;28;20017;-51
2022/01/03 21:23:03;;;;;;;10.05;4.38;;;9.40;89.20;;;;;;5094615;28;20442;-49
2022/01/03 21:25:30;;;;;;;11.52;5.90;;;9.40;89.20;;;;;;5095048;28;20016;-49
2022/01/03 21:27:56;;;;;;;12.63;5.13;;;9.30;89.50;;;;;;5095090;28;20058;-50
2022/01/03 21:30:22;;;;;;;20.67;7.03;;;9.30;89.40;;;;;;5093849;28;20356;-51
2022/01/03 21:32:50;;;;;;;13.35;5.03;;;9.30;89.50;;;;;;5094741;28;20030;-49
2022/01/03 21:35:16;;;;;;;8.65;4.53;;;9.30;89.50;;;;;;5076785;28;20024;-50
2022/01/03 21:37:42;;;;;;;11.90;5.57;;;9.30;89.50;;;;;;5094570;28;20118;-51
2022/01/03 21:40:09;;;;;;;14.80;6.45;;;9.30;89.80;;;;;;5095475;28;20051;-49
2022/01/03 21:42:35;;;;;;;9.32;5.32;;;9.30;89.90;;;;;;5094385;28;20063;-48
2022/01/03 21:45:02;;;;;;;13.82;5.97;;;9.30;89.60;;;;;;5095324;28;20013;-48
2022/01/03 21:47:27;;;;;;;8.30;5.28;;;9.30;89.80;;;;;;5094488;28;20032;-51
2022/01/03 21:49:53;;;;;;;13.48;5.50;;;9.30;89.90;;;;;;5095336;28;20112;-52
2022/01/03 21:52:19;;;;;;;11.80;5.60;;;9.30;89.70;;;;;;5095026;28;20020;-52
2022/01/03 21:54:44;;;;;;;9.88;6.13;;;9.40;89.60;;;;;;5094795;28;20460;-49
2022/01/03 21:57:10;;;;;;;13.00;6.97;;;9.30;89.70;;;;;;5094457;28;20043;-52
2022/01/03 21:59:36;;;;;;;11.20;6.40;;;9.30;89.80;;;;;;5094359;28;20024;-48
2022/01/03 22:02:01;;;;;;;10.50;6.30;;;9.30;89.70;;;;;;5094630;28;20393;-49
2022/01/03 22:04:27;;;;;;;10.88;6.07;;;9.30;89.70;;;;;;5095124;28;20035;-49
2022/01/03 22:06:53;;;;;;;12.13;7.88;;;9.40;89.70;;;;;;5093798;28;20037;-54
2022/01/03 22:09:19;;;;;;;14.80;7.13;;;9.40;89.60;;;;;;5094766;28;20109;-48
2022/01/03 22:11:46;;;;;;;15.48;7.75;;;9.40;89.70;;;;;;5094545;28;20383;-51
2022/01/03 22:14:12;;;;;;;11.75;7.35;;;9.40;89.90;;;;;;5093509;28;20471;-50
2022/01/03 22:16:38;;;;;;;13.82;8.90;;;9.50;89.70;;;;;;5094477;28;20027;-51
2022/01/03 22:19:04;;;;;;;18.17;8.82;;;9.40;89.70;;;;;;5094986;28;20020;-52
2022/01/03 22:21:30;;;;;;;13.45;8.13;;;9.50;90.10;;;;;;5095288;28;20442;-51
2022/01/03 22:23:55;;;;;;;14.57;9.20;;;9.50;89.90;;;;;;5096791;28;20070;-50
2022/01/03 22:26:21;;;;;;;14.45;7.78;;;9.40;90.20;;;;;;5099577;28;20020;-53
2022/01/03 22:28:47;;;;;;;18.02;9.65;;;9.40;90.30;;;;;;5097517;28;20024;-50
2022/01/03 22:31:13;;;;;;;20.10;9.52;;;9.40;90.50;;;;;;5098084;28;20020;-50
2022/01/03 22:33:38;;;;;;;20.92;9.65;;;9.30;90.70;;;;;;5098990;28;20380;-52
2022/01/03 22:36:04;;;;;;;18.63;11.02;;;9.30;91.30;;;;;;5098376;28;20020;-48
2022/01/03 22:38:30;;;;;;;14.10;10.38;;;9.30;91.50;;;;;;5097877;28;20040;-49
2022/01/03 22:40:56;;;;;;;21.52;10.75;;;9.30;91.50;;;;;;5098745;28;20016;-50
2022/01/03 22:43:21;;;;;;;20.00;11.88;;;9.30;92.00;;;;;;5098588;28;20020;-51
2022/01/03 22:45:47;;;;;;;19.15;9.77;;;9.30;92.10;;;;;;5098872;28;20074;-50
2022/01/03 22:48:13;;;;;;;18.92;9.85;;;9.10;92.10;;;;;;5098226;28;20046;-49
2022/01/03 22:50:38;;;;;;;17.88;9.45;;;9.10;92.50;;;;;;5097755;28;20024;-49
2022/01/03 22:53:04;;;;;;;16.95;8.75;;;9.10;92.80;;;;;;5097659;28;20401;-53
2022/01/03 22:55:30;;;;;;;16.42;7.78;;;9.10;93.00;;;;;;5098257;28;20103;-48
2022/01/03 22:57:56;;;;;;;17.83;6.97;;;9.00;93.10;;;;;;5095769;28;20027;-53
